sensor_id;sensor_type;location;lat;lon;timestamp;temperature;humidity
4207;DHT22;2117;47.972;7.830;2023-06-24T01:00:29;16.60;99.90
4207;DHT22;2117;47.972;7.830;2023-06-24T01:02:58;16.60;99.90
4207;DHT22;2117;47.972;7.830;2023-06-24T01:05:25;16.60;99.90
4207;DHT22;2117;47.972;7.830;2023-06-24T01:07:51;16.60;99.90
4207;DHT22;2117;47.972;7.830;2023-06-24T01:10:22;16.50;99.90
4207;DHT22;2117;47.972;7.830;2023-06-24T01:12:48;16.50;99.90
4207;DHT22;2117;47.972;7.830;2023-06-24T01:15:14;16.50;99.90
4207;DHT22;2117;47.972;7.830;2023-06-24T01:31:31;16.30;99.90
4207;DHT22;2117;47.972;7.830;2023-06-24T01:36:54;16.20;99.90
4207;DHT22;2117;47.972;7.830;2023-06-24T01:39:22;16.20;99.90
4207;DHT22;2117;47.972;7.830;2023-06-24T01:41:56;16.20;99.90
4207;DHT22;2117;47.972;7.830;2023-06-24T01:44:22;16.10;99.90
4207;DHT22;2117;47.972;7.830;2023-06-24T01:46:50;16.10;99.90
4207;DHT22;2117;47.972;7.830;2023-06-24T01:49:17;16.10;99.90
4207;DHT22;2117;47.972;7.830;2023-06-24T01:51:46;16.00;99.90
4207;DHT22;2117;47.972;7.830;2023-06-24T01:54:15;16.00;99.90
4207;DHT22;2117;47.972;7.830;2023-06-24T01:56:45;16.00;99.90
4207;DHT22;2117;47.972;7.830;2023-06-24T01:59:13;16.00;99.90
4207;DHT22;2117;47.972;7.830;2023-06-24T02:01:39;15.90;99.90
4207;DHT22;2117;47.972;7.830;2023-06-24T02:04:08;15.90;99.90
4207;DHT22;2117;47.972;7.830;2023-06-24T02:06:36;15.90;99.90
4207;DHT22;2117;47.972;7.830;2023-06-24T02:09:03;15.90;99.90
4207;DHT22;2117;47.972;7.830;2023-06-24T02:11:31;15.90;99.90
4207;DHT22;2117;47.972;7.830;2023-06-24T02:13:59;15.80;99.90
4207;DHT22;2117;47.972;7.830;2023-06-24T02:16:27;15.90;99.90
4207;DHT22;2117;47.972;7.830;2023-06-24T02:18:55;15.90;99.90
4207;DHT22;2117;47.972;7.830;2023-06-24T02:21:24;15.90;99.90
4207;DHT22;2117;47.972;7.830;2023-06-24T02:23:51;15.80;99.90
4207;DHT22;2117;47.972;7.830;2023-06-24T02:26:17;15.90;99.90
4207;DHT22;2117;47.972;7.830;2023-06-24T02:28:46;15.80;99.90
4207;DHT22;2117;47.972;7.830;2023-06-24T02:31:13;15.80;99.90
4207;DHT22;2117;47.972;7.830;2023-06-24T02:33:40;15.80;99.90
4207;DHT22;2117;47.972;7.830;2023-06-24T02:36:05;15.80;99.90
4207;DHT22;2117;47.972;7.830;2023-06-24T02:38:31;15.80;99.90
4207;DHT22;2117;47.972;7.830;2023-06-24T02:40:57;15.70;99.90
4207;DHT22;2117;47.972;7.830;2023-06-24T02:43:23;15.60;99.90
4207;DHT22;2117;47.972;7.830;2023-06-24T02:45:49;15.60;99.90
4207;DHT22;2117;47.972;7.830;2023-06-24T02:48:16;15.70;99.90
4207;DHT22;2117;47.972;7.830;2023-06-24T02:50:43;15.70;99.90
4207;DHT22;2117;47.972;7.830;2023-06-24T02:53:11;15.60;99.90
4207;DHT22;2117;47.972;7.830;2023-06-24T02:55:37;15.60;99.90
4207;DHT22;2117;47.972;7.830;2023-06-24T02:58:04;15.60;99.90
4207;DHT22;2117;47.972;7.830;2023-06-24T03:00:34;15.60;99.90
4207;DHT22;2117;47.972;7.830;2023-06-24T03:03:01;15.60;99.90
4207;DHT22;2117;47.972;7.830;2023-06-24T03:05:28;15.50;99.90
4207;DHT22;2117;47.972;7.830;2023-06-24T03:07:53;15.50;99.90
4207;DHT22;2117;47.972;7.830;2023-06-24T03:10:19;15.50;99.90
4207;DHT22;2117;47.972;7.830;2023-06-24T03:12:45;15.60;99.90
4207;DHT22;2117;47.972;7.830;2023-06-24T03:15:10;15.50;99.90
4207;DHT22;2117;47.972;7.830;2023-06-24T03:17:36;15.40;99.90
4207;DHT22;2117;47.972;7.830;2023-06-24T03:20:02;15.40;99.90
4207;DHT22;2117;47.972;7.830;2023-06-24T03:22:29;15.50;99.90
4207;DHT22;2117;47.972;7.830;2023-06-24T03:24:55;15.50;99.90
4207;DHT22;2117;47.972;7.830;2023-06-24T03:27:21;15.50;99.90
4207;DHT22;2117;47.972;7.830;2023-06-24T03:29:46;15.50;99.90
4207;DHT22;2117;47.972;7.830;2023-06-24T03:32:12;15.50;99.90
4207;DHT22;2117;47.972;7.830;2023-06-24T03:34:38;15.40;99.90
4207;DHT22;2117;47.972;7.830;2023-06-24T03:37:03;15.40;99.90
4207;DHT22;2117;47.972;7.830;2023-06-24T03:39:29;15.40;99.90
4207;DHT22;2117;47.972;7.830;2023-06-24T03:41:55;15.40;99.90
4207;DHT22;2117;47.972;7.830;2023-06-24T03:44:20;15.40;99.90
4207;DHT22;2117;47.972;7.830;2023-06-24T03:46:46;15.40;99.90
4207;DHT22;2117;47.972;7.830;2023-06-24T03:49:11;15.40;99.90
4207;DHT22;2117;47.972;7.830;2023-06-24T03:51:37;15.40;99.90
4207;DHT22;2117;47.972;7.830;2023-06-24T03:54:02;15.40;99.90
4207;DHT22;2117;47.972;7.830;2023-06-24T03:56:28;15.40;99.90
4207;DHT22;2117;47.972;7.830;2023-06-24T03:58:54;15.30;99.90
4207;DHT22;2117;47.972;7.830;2023-06-24T04:01:20;15.30;99.90
4207;DHT22;2117;47.972;7.830;2023-06-24T04:03:46;15.30;99.90
4207;DHT22;2117;47.972;7.830;2023-06-24T04:06:12;15.30;99.90
4207;DHT22;2117;47.972;7.830;2023-06-24T04:08:38;15.30;99.90
4207;DHT22;2117;47.972;7.830;2023-06-24T04:11:09;15.30;99.90
4207;DHT22;2117;47.972;7.830;2023-06-24T04:13:35;15.30;99.90
4207;DHT22;2117;47.972;7.830;2023-06-24T04:16:01;15.30;99.90
4207;DHT22;2117;47.972;7.830;2023-06-24T04:18:27;15.30;99.90
4207;DHT22;2117;47.972;7.830;2023-06-24T04:20:53;15.40;99.90
4207;DHT22;2117;47.972;7.830;2023-06-24T04:23:18;15.30;99.90
4207;DHT22;2117;47.972;7.830;2023-06-24T04:25:44;15.30;99.90
4207;DHT22;2117;47.972;7.830;2023-06-24T04:28:10;15.30;99.90
4207;DHT22;2117;47.972;7.830;2023-06-24T04:30:35;15.30;99.90
4207;DHT22;2117;47.972;7.830;2023-06-24T04:33:01;15.30;99.90
4207;DHT22;2117;47.972;7.830;2023-06-24T04:35:27;15.30;99.90
4207;DHT22;2117;47.972;7.830;2023-06-24T04:37:53;15.30;99.90
4207;DHT22;2117;47.972;7.830;2023-06-24T04:40:19;15.30;99.90
4207;DHT22;2117;47.972;7.830;2023-06-24T04:42:48;15.30;99.90
4207;DHT22;2117;47.972;7.830;2023-06-24T04:45:14;15.30;99.90
4207;DHT22;2117;47.972;7.830;2023-06-24T04:47:39;15.40;99.90
4207;DHT22;2117;47.972;7.830;2023-06-24T04:50:05;15.40;99.90
4207;DHT22;2117;47.972;7.830;2023-06-24T04:52:31;15.40;99.90
4207;DHT22;2117;47.972;7.830;2023-06-24T04:54:57;15.40;99.90
4207;DHT22;2117;47.972;7.830;2023-06-24T04:57:25;15.40;99.90
4207;DHT22;2117;47.972;7.830;2023-06-24T04:59:51;15.50;99.90
4207;DHT22;2117;47.972;7.830;2023-06-24T05:02:16;15.50;99.90
4207;DHT22;2117;47.972;7.830;2023-06-24T05:04:42;15.60;99.90
4207;DHT22;2117;47.972;7.830;2023-06-24T05:07:08;15.60;99.90
4207;DHT22;2117;47.972;7.830;2023-06-24T05:09:33;15.60;99.90
4207;DHT22;2117;47.972;7.830;2023-06-24T05:12:06;15.70;99.90
4207;DHT22;2117;47.972;7.830;2023-06-24T05:14:33;15.70;99.90
4207;DHT22;2117;47.972;7.830;2023-06-24T05:16:59;15.80;99.90
4207;DHT22;2117;47.972;7.830;2023-06-24T05:19:24;15.80;99.90
4207;DHT22;2117;47.972;7.830;2023-06-24T05:21:50;15.90;99.90
4207;DHT22;2117;47.972;7.830;2023-06-24T05:24:15;16.60;99.90
4207;DHT22;2117;47.972;7.830;2023-06-24T05:26:41;16.90;99.90
4207;DHT22;2117;47.972;7.830;2023-06-24T05:29:06;17.30;99.90
4207;DHT22;2117;47.972;7.830;2023-06-24T05:31:32;17.60;99.90
4207;DHT22;2117;47.972;7.830;2023-06-24T05:33:57;18.00;99.90
4207;DHT22;2117;47.972;7.830;2023-06-24T05:36:23;18.00;99.90
4207;DHT22;2117;47.972;7.830;2023-06-24T05:38:49;18.20;99.90
4207;DHT22;2117;47.972;7.830;2023-06-24T05:41:14;18.40;99.90
4207;DHT22;2117;47.972;7.830;2023-06-24T05:43:42;18.70;99.90
4207;DHT22;2117;47.972;7.830;2023-06-24T05:46:08;18.80;99.90
4207;DHT22;2117;47.972;7.830;2023-06-24T05:48:34;19.00;99.90
4207;DHT22;2117;47.972;7.830;2023-06-24T05:51:00;19.10;99.90
4207;DHT22;2117;47.972;7.830;2023-06-24T05:53:25;19.10;99.90
4207;DHT22;2117;47.972;7.830;2023-06-24T05:55:51;19.10;99.90
4207;DHT22;2117;47.972;7.830;2023-06-24T05:58:16;19.10;99.90
4207;DHT22;2117;47.972;7.830;2023-06-24T06:00:42;19.20;99.90
4207;DHT22;2117;47.972;7.830;2023-06-24T06:03:07;19.30;99.90
4207;DHT22;2117;47.972;7.830;2023-06-24T06:05:33;19.30;99.90
4207;DHT22;2117;47.972;7.830;2023-06-24T06:07:58;19.30;99.90
4207;DHT22;2117;47.972;7.830;2023-06-24T06:10:24;19.40;99.90
4207;DHT22;2117;47.972;7.830;2023-06-24T06:12:50;19.50;99.90
4207;DHT22;2117;47.972;7.830;2023-06-24T06:15:15;19.60;99.90
4207;DHT22;2117;47.972;7.830;2023-06-24T06:17:41;19.60;99.90
4207;DHT22;2117;47.972;7.830;2023-06-24T06:20:07;19.60;99.90
4207;DHT22;2117;47.972;7.830;2023-06-24T06:22:32;19.60;99.90
4207;DHT22;2117;47.972;7.830;2023-06-24T06:25:06;19.70;99.90
4207;DHT22;2117;47.972;7.830;2023-06-24T06:27:31;19.80;99.90
4207;DHT22;2117;47.972;7.830;2023-06-24T06:32:23;20.00;99.90
4207;DHT22;2117;47.972;7.830;2023-06-24T06:34:49;20.20;99.90
4207;DHT22;2117;47.972;7.830;2023-06-24T06:37:14;20.20;99.90
4207;DHT22;2117;47.972;7.830;2023-06-24T06:39:40;20.20;99.90
4207;DHT22;2117;47.972;7.830;2023-06-24T06:42:05;20.00;99.90
4207;DHT22;2117;47.972;7.830;2023-06-24T06:44:31;20.00;99.90
4207;DHT22;2117;47.972;7.830;2023-06-24T06:46:57;19.90;99.90
4207;DHT22;2117;47.972;7.830;2023-06-24T06:49:22;19.80;99.90
4207;DHT22;2117;47.972;7.830;2023-06-24T06:51:48;19.70;99.90
4207;DHT22;2117;47.972;7.830;2023-06-24T06:54:14;19.60;99.90
4207;DHT22;2117;47.972;7.830;2023-06-24T06:56:39;19.70;99.90
4207;DHT22;2117;47.972;7.830;2023-06-24T06:59:05;19.70;99.90
4207;DHT22;2117;47.972;7.830;2023-06-24T07:01:31;19.70;99.90
4207;DHT22;2117;47.972;7.830;2023-06-24T07:03:56;19.70;99.90
4207;DHT22;2117;47.972;7.830;2023-06-24T07:06:22;19.80;99.90
4207;DHT22;2117;47.972;7.830;2023-06-24T07:08:48;19.80;99.90
4207;DHT22;2117;47.972;7.830;2023-06-24T07:11:13;19.90;99.90
4207;DHT22;2117;47.972;7.830;2023-06-24T07:13:39;19.90;99.90
4207;DHT22;2117;47.972;7.830;2023-06-24T07:16:04;19.90;99.90
4207;DHT22;2117;47.972;7.830;2023-06-24T07:18:30;20.00;99.90
4207;DHT22;2117;47.972;7.830;2023-06-24T07:20:56;20.00;99.90
4207;DHT22;2117;47.972;7.830;2023-06-24T07:23:22;20.10;99.90
4207;DHT22;2117;47.972;7.830;2023-06-24T07:25:48;20.10;99.90
4207;DHT22;2117;47.972;7.830;2023-06-24T07:28:13;20.10;99.90
4207;DHT22;2117;47.972;7.830;2023-06-24T07:30:40;20.20;99.90
4207;DHT22;2117;47.972;7.830;2023-06-24T07:33:07;20.20;99.90
4207;DHT22;2117;47.972;7.830;2023-06-24T07:35:32;20.20;99.90
4207;DHT22;2117;47.972;7.830;2023-06-24T07:37:58;20.30;99.90
4207;DHT22;2117;47.972;7.830;2023-06-24T07:40:24;20.30;99.90
4207;DHT22;2117;47.972;7.830;2023-06-24T07:42:50;20.30;99.90
4207;DHT22;2117;47.972;7.830;2023-06-24T07:45:15;20.40;99.90
4207;DHT22;2117;47.972;7.830;2023-06-24T07:47:41;20.40;99.90
4207;DHT22;2117;47.972;7.830;2023-06-24T07:50:06;20.40;99.90
4207;DHT22;2117;47.972;7.830;2023-06-24T07:52:32;20.50;99.90
4207;DHT22;2117;47.972;7.830;2023-06-24T07:54:58;20.60;99.90
4207;DHT22;2117;47.972;7.830;2023-06-24T07:57:24;20.70;99.90
4207;DHT22;2117;47.972;7.830;2023-06-24T07:59:51;20.80;99.90
4207;DHT22;2117;47.972;7.830;2023-06-24T08:02:17;20.80;99.90
4207;DHT22;2117;47.972;7.830;2023-06-24T08:04:42;21.00;99.90
4207;DHT22;2117;47.972;7.830;2023-06-24T08:07:08;21.00;99.90
4207;DHT22;2117;47.972;7.830;2023-06-24T08:09:33;21.10;99.90
4207;DHT22;2117;47.972;7.830;2023-06-24T08:11:59;21.20;99.90
4207;DHT22;2117;47.972;7.830;2023-06-24T08:14:25;21.30;99.90
4207;DHT22;2117;47.972;7.830;2023-06-24T08:16:50;21.30;99.90
4207;DHT22;2117;47.972;7.830;2023-06-24T08:19:16;21.40;99.90
4207;DHT22;2117;47.972;7.830;2023-06-24T08:21:41;21.40;99.90
4207;DHT22;2117;47.972;7.830;2023-06-24T08:24:07;21.50;99.90
4207;DHT22;2117;47.972;7.830;2023-06-24T08:26:33;21.60;99.90
4207;DHT22;2117;47.972;7.830;2023-06-24T08:28:58;21.70;99.90
4207;DHT22;2117;47.972;7.830;2023-06-24T08:31:25;21.90;99.90
4207;DHT22;2117;47.972;7.830;2023-06-24T08:33:53;22.00;99.90
4207;DHT22;2117;47.972;7.830;2023-06-24T08:36:22;22.10;99.90
4207;DHT22;2117;47.972;7.830;2023-06-24T08:38:49;22.20;99.90
4207;DHT22;2117;47.972;7.830;2023-06-24T08:41:14;22.40;99.90
4207;DHT22;2117;47.972;7.830;2023-06-24T08:43:40;22.50;99.90
4207;DHT22;2117;47.972;7.830;2023-06-24T08:46:06;22.60;99.90
4207;DHT22;2117;47.972;7.830;2023-06-24T08:48:33;22.70;99.90
4207;DHT22;2117;47.972;7.830;2023-06-24T08:51:07;22.80;99.90
4207;DHT22;2117;47.972;7.830;2023-06-24T08:53:33;22.90;99.90
4207;DHT22;2117;47.972;7.830;2023-06-24T08:55:59;23.00;99.90
4207;DHT22;2117;47.972;7.830;2023-06-24T08:58:25;23.10;99.90
4207;DHT22;2117;47.972;7.830;2023-06-24T09:00:51;23.10;99.90
4207;DHT22;2117;47.972;7.830;2023-06-24T09:03:17;23.30;99.90
4207;DHT22;2117;47.972;7.830;2023-06-24T09:05:43;23.40;99.90
4207;DHT22;2117;47.972;7.830;2023-06-24T09:08:09;23.50;99.90
4207;DHT22;2117;47.972;7.830;2023-06-24T09:10:36;23.60;99.90
4207;DHT22;2117;47.972;7.830;2023-06-24T09:13:06;23.70;99.90
4207;DHT22;2117;47.972;7.830;2023-06-24T09:15:36;23.80;99.90
4207;DHT22;2117;47.972;7.830;2023-06-24T09:18:03;23.90;99.90
4207;DHT22;2117;47.972;7.830;2023-06-24T09:20:30;24.00;99.90
4207;DHT22;2117;47.972;7.830;2023-06-24T09:23:01;24.10;99.90
4207;DHT22;2117;47.972;7.830;2023-06-24T09:25:27;24.20;99.90
4207;DHT22;2117;47.972;7.830;2023-06-24T09:27:53;24.30;99.90
4207;DHT22;2117;47.972;7.830;2023-06-24T09:30:22;24.50;99.90
4207;DHT22;2117;47.972;7.830;2023-06-24T09:32:48;24.40;99.90
4207;DHT22;2117;47.972;7.830;2023-06-24T09:35:14;24.60;99.90
4207;DHT22;2117;47.972;7.830;2023-06-24T09:37:43;24.70;99.90
4207;DHT22;2117;47.972;7.830;2023-06-24T09:40:09;24.90;99.90
4207;DHT22;2117;47.972;7.830;2023-06-24T09:42:35;24.80;99.90
4207;DHT22;2117;47.972;7.830;2023-06-24T09:45:05;24.90;99.90
4207;DHT22;2117;47.972;7.830;2023-06-24T09:47:31;25.10;99.90
4207;DHT22;2117;47.972;7.830;2023-06-24T09:49:57;25.10;99.90
4207;DHT22;2117;47.972;7.830;2023-06-24T09:52:23;25.20;99.90
4207;DHT22;2117;47.972;7.830;2023-06-24T09:54:51;25.30;99.90
4207;DHT22;2117;47.972;7.830;2023-06-24T09:57:22;25.40;99.90
4207;DHT22;2117;47.972;7.830;2023-06-24T09:59:49;25.50;99.90
4207;DHT22;2117;47.972;7.830;2023-06-24T10:02:16;25.50;99.90
4207;DHT22;2117;47.972;7.830;2023-06-24T10:04:44;25.60;99.90
4207;DHT22;2117;47.972;7.830;2023-06-24T10:07:10;25.80;99.90
4207;DHT22;2117;47.972;7.830;2023-06-24T10:09:38;26.00;99.90
4207;DHT22;2117;47.972;7.830;2023-06-24T10:12:04;26.20;99.90
4207;DHT22;2117;47.972;7.830;2023-06-24T10:14:30;26.30;99.90
4207;DHT22;2117;47.972;7.830;2023-06-24T10:17:03;26.30;99.90
4207;DHT22;2117;47.972;7.830;2023-06-24T10:19:29;26.60;99.90
4207;DHT22;2117;47.972;7.830;2023-06-24T10:21:58;26.80;98.40
4207;DHT22;2117;47.972;7.830;2023-06-24T10:24:36;27.00;98.40
4207;DHT22;2117;47.972;7.830;2023-06-24T10:27:14;27.20;96.90
4207;DHT22;2117;47.972;7.830;2023-06-24T10:29:45;27.40;98.20
4207;DHT22;2117;47.972;7.830;2023-06-24T10:32:10;27.50;97.20
4207;DHT22;2117;47.972;7.830;2023-06-24T10:34:40;27.50;96.60
4207;DHT22;2117;47.972;7.830;2023-06-24T10:37:20;27.00;96.60
4207;DHT22;2117;47.972;7.830;2023-06-24T10:39:59;27.00;97.40
4207;DHT22;2117;47.972;7.830;2023-06-24T10:42:42;27.30;98.00
4207;DHT22;2117;47.972;7.830;2023-06-24T10:47:38;27.70;96.60
4207;DHT22;2117;47.972;7.830;2023-06-24T10:50:05;27.80;95.50
4207;DHT22;2117;47.972;7.830;2023-06-24T10:52:31;27.90;96.50
4207;DHT22;2117;47.972;7.830;2023-06-24T10:54:57;28.20;97.40
4207;DHT22;2117;47.972;7.830;2023-06-24T10:57:25;28.60;97.70
4207;DHT22;2117;47.972;7.830;2023-06-24T10:59:52;29.10;96.40
4207;DHT22;2117;47.972;7.830;2023-06-24T11:02:23;29.50;95.20
4207;DHT22;2117;47.972;7.830;2023-06-24T11:04:57;29.60;94.20
4207;DHT22;2117;47.972;7.830;2023-06-24T11:07:24;29.80;93.20
4207;DHT22;2117;47.972;7.830;2023-06-24T11:09:56;29.90;92.40
4207;DHT22;2117;47.972;7.830;2023-06-24T11:12:30;29.90;91.30
4207;DHT22;2117;47.972;7.830;2023-06-24T11:14:57;29.70;91.60
4207;DHT22;2117;47.972;7.830;2023-06-24T11:17:24;29.50;92.10
4207;DHT22;2117;47.972;7.830;2023-06-24T11:19:49;29.10;92.30
4207;DHT22;2117;47.972;7.830;2023-06-24T11:22:15;29.50;92.10
4207;DHT22;2117;47.972;7.830;2023-06-24T11:24:41;29.90;92.60
4207;DHT22;2117;47.972;7.830;2023-06-24T11:27:07;30.40;92.10
4207;DHT22;2117;47.972;7.830;2023-06-24T11:29:33;30.80;93.40
4207;DHT22;2117;47.972;7.830;2023-06-24T11:32:01;31.30;91.20
4207;DHT22;2117;47.972;7.830;2023-06-24T11:34:26;31.60;90.90
4207;DHT22;2117;47.972;7.830;2023-06-24T11:36:52;31.90;88.90
4207;DHT22;2117;47.972;7.830;2023-06-24T11:39:22;32.10;89.90
4207;DHT22;2117;47.972;7.830;2023-06-24T11:41:48;32.50;90.10
4207;DHT22;2117;47.972;7.830;2023-06-24T11:44:14;32.40;85.50
4207;DHT22;2117;47.972;7.830;2023-06-24T11:46:40;32.60;86.30
4207;DHT22;2117;47.972;7.830;2023-06-24T11:49:07;32.90;87.50
4207;DHT22;2117;47.972;7.830;2023-06-24T11:51:33;33.20;86.40
4207;DHT22;2117;47.972;7.830;2023-06-24T11:54:01;33.00;82.00
4207;DHT22;2117;47.972;7.830;2023-06-24T11:56:36;32.80;82.60
4207;DHT22;2117;47.972;7.830;2023-06-24T11:59:06;32.80;86.10
4207;DHT22;2117;47.972;7.830;2023-06-24T12:01:32;33.00;80.60
4207;DHT22;2117;47.972;7.830;2023-06-24T12:04:01;33.20;84.00
4207;DHT22;2117;47.972;7.830;2023-06-24T12:06:27;33.40;77.20
4207;DHT22;2117;47.972;7.830;2023-06-24T12:08:52;33.70;80.50
4207;DHT22;2117;47.972;7.830;2023-06-24T12:11:19;33.80;82.10
4207;DHT22;2117;47.972;7.830;2023-06-24T12:13:44;34.10;81.40
4207;DHT22;2117;47.972;7.830;2023-06-24T12:16:10;34.30;81.50
4207;DHT22;2117;47.972;7.830;2023-06-24T12:18:35;34.50;79.10
4207;DHT22;2117;47.972;7.830;2023-06-24T12:21:01;34.80;80.10
4207;DHT22;2117;47.972;7.830;2023-06-24T12:23:26;35.70;72.60
4207;DHT22;2117;47.972;7.830;2023-06-24T12:25:52;36.50;72.00
4207;DHT22;2117;47.972;7.830;2023-06-24T12:28:17;37.40;71.20
4207;DHT22;2117;47.972;7.830;2023-06-24T12:30:43;38.10;72.30
4207;DHT22;2117;47.972;7.830;2023-06-24T12:33:09;38.70;68.80
4207;DHT22;2117;47.972;7.830;2023-06-24T12:35:34;38.70;64.80
4207;DHT22;2117;47.972;7.830;2023-06-24T12:38:00;38.60;65.70
4207;DHT22;2117;47.972;7.830;2023-06-24T12:40:25;38.10;66.20
4207;DHT22;2117;47.972;7.830;2023-06-24T12:42:51;38.10;66.90
4207;DHT22;2117;47.972;7.830;2023-06-24T12:45:16;37.90;65.40
4207;DHT22;2117;47.972;7.830;2023-06-24T12:47:42;38.20;62.80
4207;DHT22;2117;47.972;7.830;2023-06-24T12:50:08;38.20;58.50
4207;DHT22;2117;47.972;7.830;2023-06-24T12:52:34;38.40;65.00
4207;DHT22;2117;47.972;7.830;2023-06-24T12:55:00;38.30;62.40
4207;DHT22;2117;47.972;7.830;2023-06-24T12:57:26;37.90;64.00
4207;DHT22;2117;47.972;7.830;2023-06-24T12:59:51;38.40;64.30
4207;DHT22;2117;47.972;7.830;2023-06-24T13:02:17;38.80;63.30
4207;DHT22;2117;47.972;7.830;2023-06-24T13:04:42;38.10;58.50
4207;DHT22;2117;47.972;7.830;2023-06-24T13:07:08;37.90;59.70
4207;DHT22;2117;47.972;7.830;2023-06-24T13:09:35;38.40;60.80
4207;DHT22;2117;47.972;7.830;2023-06-24T13:12:00;38.50;59.80
4207;DHT22;2117;47.972;7.830;2023-06-24T13:14:26;38.40;60.00
4207;DHT22;2117;47.972;7.830;2023-06-24T13:16:54;38.50;59.50
4207;DHT22;2117;47.972;7.830;2023-06-24T13:19:19;38.80;63.50
4207;DHT22;2117;47.972;7.830;2023-06-24T13:21:45;39.40;60.80
4207;DHT22;2117;47.972;7.830;2023-06-24T13:24:10;39.80;59.70
4207;DHT22;2117;47.972;7.830;2023-06-24T13:26:38;40.10;60.60
4207;DHT22;2117;47.972;7.830;2023-06-24T13:29:03;40.20;59.10
4207;DHT22;2117;47.972;7.830;2023-06-24T13:31:29;40.10;59.30
4207;DHT22;2117;47.972;7.830;2023-06-24T13:33:55;39.60;58.80
4207;DHT22;2117;47.972;7.830;2023-06-24T13:36:34;39.60;59.70
4207;DHT22;2117;47.972;7.830;2023-06-24T13:39:05;39.90;59.40
4207;DHT22;2117;47.972;7.830;2023-06-24T13:41:31;40.40;58.40
4207;DHT22;2117;47.972;7.830;2023-06-24T13:44:01;40.50;58.50
4207;DHT22;2117;47.972;7.830;2023-06-24T13:46:28;40.20;58.80
4207;DHT22;2117;47.972;7.830;2023-06-24T13:48:54;40.20;59.60
4207;DHT22;2117;47.972;7.830;2023-06-24T13:51:20;40.30;58.40
4207;DHT22;2117;47.972;7.830;2023-06-24T13:53:47;40.40;59.30
4207;DHT22;2117;47.972;7.830;2023-06-24T13:56:13;40.20;58.70
4207;DHT22;2117;47.972;7.830;2023-06-24T13:58:39;40.30;58.70
4207;DHT22;2117;47.972;7.830;2023-06-24T14:01:04;40.50;56.70
4207;DHT22;2117;47.972;7.830;2023-06-24T14:03:30;40.20;57.30
4207;DHT22;2117;47.972;7.830;2023-06-24T14:05:55;40.30;57.30
4207;DHT22;2117;47.972;7.830;2023-06-24T14:08:22;40.20;59.10
4207;DHT22;2117;47.972;7.830;2023-06-24T14:10:48;40.00;58.60
4207;DHT22;2117;47.972;7.830;2023-06-24T14:13:14;40.10;58.00
4207;DHT22;2117;47.972;7.830;2023-06-24T14:15:40;39.90;57.80
4207;DHT22;2117;47.972;7.830;2023-06-24T14:18:06;39.70;55.10
4207;DHT22;2117;47.972;7.830;2023-06-24T14:20:31;39.90;57.60
4207;DHT22;2117;47.972;7.830;2023-06-24T14:22:57;39.90;56.00
4207;DHT22;2117;47.972;7.830;2023-06-24T14:25:22;39.80;57.90
4207;DHT22;2117;47.972;7.830;2023-06-24T14:27:49;40.20;56.80
4207;DHT22;2117;47.972;7.830;2023-06-24T14:30:15;40.60;56.70
4207;DHT22;2117;47.972;7.830;2023-06-24T14:32:40;40.20;56.10
4207;DHT22;2117;47.972;7.830;2023-06-24T14:35:07;40.10;57.80
4207;DHT22;2117;47.972;7.830;2023-06-24T14:37:33;40.40;54.70
4207;DHT22;2117;47.972;7.830;2023-06-24T14:39:58;40.50;54.80
4207;DHT22;2117;47.972;7.830;2023-06-24T14:42:24;40.50;54.20
4207;DHT22;2117;47.972;7.830;2023-06-24T14:44:49;40.20;56.50
4207;DHT22;2117;47.972;7.830;2023-06-24T14:47:15;39.80;55.80
4207;DHT22;2117;47.972;7.830;2023-06-24T14:49:40;39.60;55.70
4207;DHT22;2117;47.972;7.830;2023-06-24T14:52:06;39.60;55.00
4207;DHT22;2117;47.972;7.830;2023-06-24T14:54:32;39.50;55.00
4207;DHT22;2117;47.972;7.830;2023-06-24T14:56:57;39.40;55.70
4207;DHT22;2117;47.972;7.830;2023-06-24T14:59:23;39.60;56.60
4207;DHT22;2117;47.972;7.830;2023-06-24T15:01:48;39.30;56.20
4207;DHT22;2117;47.972;7.830;2023-06-24T15:04:14;39.30;56.00
4207;DHT22;2117;47.972;7.830;2023-06-24T15:06:39;39.20;54.90
4207;DHT22;2117;47.972;7.830;2023-06-24T15:09:05;39.20;56.10
4207;DHT22;2117;47.972;7.830;2023-06-24T15:11:30;39.20;52.60
4207;DHT22;2117;47.972;7.830;2023-06-24T15:13:56;39.10;55.40
4207;DHT22;2117;47.972;7.830;2023-06-24T15:16:22;39.20;55.00
4207;DHT22;2117;47.972;7.830;2023-06-24T15:18:48;39.40;56.40
4207;DHT22;2117;47.972;7.830;2023-06-24T15:21:15;39.60;54.00
4207;DHT22;2117;47.972;7.830;2023-06-24T15:23:41;40.10;55.90
4207;DHT22;2117;47.972;7.830;2023-06-24T15:26:06;40.20;52.10
4207;DHT22;2117;47.972;7.830;2023-06-24T15:28:32;40.40;52.30
4207;DHT22;2117;47.972;7.830;2023-06-24T15:31:01;40.80;51.10
4207;DHT22;2117;47.972;7.830;2023-06-24T15:33:27;40.70;53.80
4207;DHT22;2117;47.972;7.830;2023-06-24T15:35:53;40.50;52.20
4207;DHT22;2117;47.972;7.830;2023-06-24T15:38:19;40.40;53.40
4207;DHT22;2117;47.972;7.830;2023-06-24T15:40:45;40.40;51.00
4207;DHT22;2117;47.972;7.830;2023-06-24T15:43:10;40.40;54.20
4207;DHT22;2117;47.972;7.830;2023-06-24T15:45:37;40.40;54.30
4207;DHT22;2117;47.972;7.830;2023-06-24T15:48:06;40.20;54.60
4207;DHT22;2117;47.972;7.830;2023-06-24T15:50:32;39.90;53.40
4207;DHT22;2117;47.972;7.830;2023-06-24T15:52:57;39.90;53.40
4207;DHT22;2117;47.972;7.830;2023-06-24T15:55:23;39.80;51.10
4207;DHT22;2117;47.972;7.830;2023-06-24T15:57:49;39.60;51.30
4207;DHT22;2117;47.972;7.830;2023-06-24T16:00:14;39.50;51.10
4207;DHT22;2117;47.972;7.830;2023-06-24T16:02:40;39.40;51.60
4207;DHT22;2117;47.972;7.830;2023-06-24T16:05:06;39.40;53.10
4207;DHT22;2117;47.972;7.830;2023-06-24T16:07:35;39.50;53.70
4207;DHT22;2117;47.972;7.830;2023-06-24T16:10:01;39.30;52.40
4207;DHT22;2117;47.972;7.830;2023-06-24T16:12:27;39.30;52.00
4207;DHT22;2117;47.972;7.830;2023-06-24T16:14:53;39.10;51.70
4207;DHT22;2117;47.972;7.830;2023-06-24T16:17:19;39.60;52.00
4207;DHT22;2117;47.972;7.830;2023-06-24T16:19:44;39.40;51.00
4207;DHT22;2117;47.972;7.830;2023-06-24T16:22:11;39.60;51.40
4207;DHT22;2117;47.972;7.830;2023-06-24T16:24:36;39.60;52.40
4207;DHT22;2117;47.972;7.830;2023-06-24T16:27:02;39.30;52.30
4207;DHT22;2117;47.972;7.830;2023-06-24T16:29:28;38.70;53.20
4207;DHT22;2117;47.972;7.830;2023-06-24T16:31:53;38.00;53.90
4207;DHT22;2117;47.972;7.830;2023-06-24T16:34:19;37.10;53.70
4207;DHT22;2117;47.972;7.830;2023-06-24T16:36:44;36.40;56.50
4207;DHT22;2117;47.972;7.830;2023-06-24T16:39:10;35.80;55.40
4207;DHT22;2117;47.972;7.830;2023-06-24T16:41:35;35.30;57.30
4207;DHT22;2117;47.972;7.830;2023-06-24T16:44:01;34.80;58.10
4207;DHT22;2117;47.972;7.830;2023-06-24T16:46:27;34.40;58.10
4207;DHT22;2117;47.972;7.830;2023-06-24T16:48:53;34.00;58.40
4207;DHT22;2117;47.972;7.830;2023-06-24T16:51:18;33.70;57.10
4207;DHT22;2117;47.972;7.830;2023-06-24T16:53:44;33.30;58.90
4207;DHT22;2117;47.972;7.830;2023-06-24T16:56:09;33.00;59.50
4207;DHT22;2117;47.972;7.830;2023-06-24T16:58:35;32.70;59.30
4207;DHT22;2117;47.972;7.830;2023-06-24T17:01:01;32.40;60.00
4207;DHT22;2117;47.972;7.830;2023-06-24T17:03:26;32.20;60.00
4207;DHT22;2117;47.972;7.830;2023-06-24T17:05:52;31.70;60.00
4207;DHT22;2117;47.972;7.830;2023-06-24T17:08:18;31.60;60.60
4207;DHT22;2117;47.972;7.830;2023-06-24T17:10:43;31.40;60.50
4207;DHT22;2117;47.972;7.830;2023-06-24T17:13:09;31.10;61.40
4207;DHT22;2117;47.972;7.830;2023-06-24T17:15:35;30.90;64.60
4207;DHT22;2117;47.972;7.830;2023-06-24T17:18:00;30.60;61.30